Time;durP1;ratioP1;P1;durP2;ratioP2;P2;SDS_P1;SDS_P2;PMS_P1;PMS_P2;Temp;Humidity;BMP_temperature;BMP_pressure;BME280_temperature;BME280_humidity;BME280_pressure;Samples;Min_cycle;Max_cycle;Signal;HPM_P1;HPM_P2
2020/12/23 00:01:21;;;;;;;6.17;3.50;;;;;;;9.21;100.00;99688.42;1692561;83;20961;-72
2020/12/23 00:03:47;;;;;;;6.10;3.33;;;;;;;9.04;100.00;99716.50;1697304;83;21420;-72
2020/12/23 00:06:13;;;;;;;5.28;3.35;;;;;;;8.91;100.00;99724.83;1697771;83;20985;-73
2020/12/23 00:08:38;;;;;;;5.75;3.40;;;;;;;8.84;100.00;99723.83;1693562;83;20957;-72
2020/12/23 00:11:04;;;;;;;4.72;3.40;;;;;;;8.86;100.00;99721.85;1694737;83;21366;-71
2020/12/23 00:13:30;;;;;;;4.80;3.10;;;;;;;8.85;100.00;99718.87;1695484;83;20957;-71
2020/12/23 00:15:56;;;;;;;3.52;2.50;;;;;;;8.79;100.00;99717.70;1692790;83;21242;-71
2020/12/23 00:18:22;;;;;;;5.10;2.72;;;;;;;8.76;100.00;99716.70;1693500;83;27065;-72
2020/12/23 00:20:47;;;;;;;3.45;2.42;;;;;;;8.69;100.00;99735.90;1698076;83;21540;-71
2020/12/23 00:23:13;;;;;;;3.65;2.10;;;;;;;8.59;100.00;99730.71;1692657;83;20937;-71
2020/12/23 00:25:39;;;;;;;5.12;1.60;;;;;;;8.59;100.00;99743.41;1695243;83;21031;-72
2020/12/23 00:28:05;;;;;;;3.80;1.77;;;;;;;8.48;99.56;99739.67;1699865;83;21980;-72
2020/12/23 00:30:31;;;;;;;2.77;1.72;;;;;;;8.51;99.23;99744.63;1694891;83;27022;-72
2020/12/23 00:32:57;;;;;;;1.98;1.40;;;;;;;8.50;99.40;99727.21;1695220;83;21111;-72
2020/12/23 00:35:22;;;;;;;2.75;1.50;;;;;;;8.46;98.11;99738.20;1693161;83;20953;-72
2020/12/23 00:37:48;;;;;;;2.47;1.52;;;;;;;8.45;98.01;99737.34;1698472;83;20953;-72
2020/12/23 00:40:14;;;;;;;3.77;1.60;;;;;;;8.45;98.20;99753.14;1700972;83;22035;-73
2020/12/23 00:42:40;;;;;;;2.85;1.55;;;;;;;8.36;96.23;99741.70;1701128;83;27321;-71
2020/12/23 00:45:06;;;;;;;2.85;1.30;;;;;;;8.38;96.26;99754.71;1696520;83;25215;-73
2020/12/23 00:47:32;;;;;;;2.10;1.30;;;;;;;8.35;95.61;99751.88;1700381;83;21128;-72
2020/12/23 00:49:57;;;;;;;2.17;1.10;;;;;;;8.37;95.62;99750.42;1695383;83;21022;-74
2020/12/23 00:52:23;;;;;;;3.80;1.37;;;;;;;8.30;95.67;99757.25;1692227;83;21355;-72
2020/12/23 00:54:49;;;;;;;2.33;1.20;;;;;;;8.37;95.60;99756.99;1677823;85;26985;-74
2020/12/23 00:57:14;;;;;;;2.20;1.17;;;;;;;8.31;95.43;99759.73;1677345;83;25149;-73
2020/12/23 00:59:40;;;;;;;2.10;1.25;;;;;;;8.24;95.73;99758.20;1682461;83;21033;-73
2020/12/23 01:02:06;;;;;;;2.08;1.05;;;;;;;8.34;95.34;99759.93;1685639;83;21748;-74
2020/12/23 01:04:32;;;;;;;1.72;1.07;;;;;;;8.28;94.96;99767.92;1678841;83;21743;-73
2020/12/23 01:06:58;;;;;;;2.25;1.20;;;;;;;8.25;94.77;99769.07;1678315;83;24310;-72
2020/12/23 01:09:23;;;;;;;2.37;1.10;;;;;;;8.19;95.11;99772.30;1681003;83;25610;-73
2020/12/23 01:11:49;;;;;;;2.20;1.20;;;;;;;8.21;95.41;99775.59;1678016;83;20927;-73
2020/12/23 01:14:16;;;;;;;2.12;1.35;;;;;;;8.15;95.29;99794.61;1677885;83;21212;-74
2020/12/23 01:16:42;;;;;;;2.58;1.40;;;;;;;8.16;95.14;99785.75;1679715;83;21891;-73
2020/12/23 01:19:08;;;;;;;3.52;1.30;;;;;;;8.12;95.14;99814.62;1679442;83;27488;-73
2020/12/23 01:21:34;;;;;;;1.90;1.00;;;;;;;8.06;95.42;99806.87;1678985;83;25340;-72
2020/12/23 01:23:59;;;;;;;1.87;1.07;;;;;;;8.07;95.18;99811.63;1675986;83;28770;-72
2020/12/23 01:26:25;;;;;;;1.75;1.05;;;;;;;8.03;95.04;99810.26;1676814;83;21684;-73
2020/12/23 01:28:51;;;;;;;2.62;1.32;;;;;;;7.98;94.95;99809.88;1678426;83;22592;-70
2020/12/23 01:31:16;;;;;;;2.47;1.20;;;;;;;7.96;94.72;99811.34;1676459;83;27069;-72
2020/12/23 01:33:42;;;;;;;2.45;1.40;;;;;;;8.02;94.53;99820.45;1677249;83;25246;-71
2020/12/23 01:36:09;;;;;;;1.47;1.00;;;;;;;8.01;94.76;99817.48;1676342;83;20961;-72
2020/12/23 01:38:35;;;;;;;1.63;1.00;;;;;;;8.01;94.25;99828.81;1681064;83;21196;-71
2020/12/23 01:41:03;;;;;;;1.75;1.20;;;;;;;8.01;93.81;99826.69;1674692;83;21863;-72
2020/12/23 01:43:29;;;;;;;2.27;1.20;;;;;;;8.03;93.92;99824.72;1678796;83;21183;-75
2020/12/23 01:45:55;;;;;;;2.80;1.40;;;;;;;7.98;93.74;99815.95;1686351;83;25347;-71
2020/12/23 01:48:27;;;;;;;2.00;1.30;;;;;;;8.02;93.67;99815.20;1678231;83;21612;-72
2020/12/23 01:50:53;;;;;;;5.25;1.40;;;;;;;8.00;93.55;99818.44;1678653;83;21173;-71
2020/12/23 01:53:18;;;;;;;1.75;1.10;;;;;;;8.03;93.70;99809.79;1669479;81;21927;-71
2020/12/23 01:55:45;;;;;;;1.82;1.30;;;;;;;7.98;93.48;99807.25;1646555;85;27030;-70
2020/12/23 01:58:12;;;;;;;1.60;1.10;;;;;;;7.98;93.17;99801.50;1632237;85;21182;-71
2020/12/23 02:00:39;;;;;;;2.42;1.35;;;;;;;7.94;93.29;99791.42;1636637;85;21676;-71
2020/12/23 02:03:07;;;;;;;5.75;1.27;;;;;;;7.94;93.06;99794.05;1625707;85;21190;-71
2020/12/23 02:05:33;;;;;;;1.75;1.20;;;;;;;7.98;93.10;99794.11;1623505;85;21731;-71
2020/12/23 02:07:59;;;;;;;3.40;1.30;;;;;;;7.98;93.04;99803.31;1644354;83;27051;-70
2020/12/23 02:10:25;;;;;;;3.37;1.30;;;;;;;7.98;93.29;99800.69;1637035;85;21604;-70
2020/12/23 02:12:52;;;;;;;2.30;1.30;;;;;;;7.98;93.15;99790.16;1640036;85;28523;-71
2020/12/23 02:15:18;;;;;;;;;;;;;;;7.98;93.23;99795.42;1636654;85;21216;-72
2020/12/23 02:17:44;;;;;;;2.45;1.32;;;;;;;7.97;92.90;99804.27;1637800;85;21595;-71
2020/12/23 02:30:49;;;;;;;2.35;1.40;;;;;;;7.82;94.35;99835.02;1622633;87;21236;-72
2020/12/23 02:33:15;;;;;;;3.40;1.70;;;;;;;7.81;94.72;99830.72;1629688;87;21226;-70
2020/12/23 02:35:41;;;;;;;4.28;1.90;;;;;;;7.81;94.69;99825.46;1629623;87;25836;-71
2020/12/23 02:38:06;;;;;;;2.92;1.77;;;;;;;7.84;95.00;99829.11;1631536;87;21887;-71
2020/12/23 02:40:33;;;;;;;6.05;2.47;;;;;;;7.88;95.00;99824.41;1628616;87;21106;-71
2020/12/23 02:42:58;;;;;;;4.15;2.72;;;;;;;7.84;94.95;99827.80;1625785;87;22169;-70
2020/12/23 02:45:24;;;;;;;3.80;2.60;;;;;;;7.75;95.56;99815.53;1629374;87;27021;-70
2020/12/23 02:47:50;;;;;;;3.58;2.50;;;;;;;7.80;95.76;99821.20;1629080;87;25377;-71
2020/12/23 02:50:16;;;;;;;3.10;2.50;;;;;;;7.77;96.01;99828.06;1631775;87;28476;-70
2020/12/23 02:52:41;;;;;;;3.65;2.37;;;;;;;7.79;96.12;99832.67;1630199;87;21058;-71
2020/12/23 02:55:07;;;;;;;4.03;2.60;;;;;;;7.81;96.06;99828.59;1632992;87;21453;-70
2020/12/23 02:57:33;;;;;;;4.42;2.47;;;;;;;7.80;95.94;99835.66;1629703;87;27108;-71
2020/12/23 02:59:59;;;;;;;4.12;2.52;;;;;;;7.83;96.25;99839.30;1627566;87;26195;-71
2020/12/23 03:02:24;;;;;;;4.50;2.62;;;;;;;7.85;95.98;99836.03;1629834;87;28924;-70
2020/12/23 03:04:50;;;;;;;3.95;2.50;;;;;;;7.85;96.00;99832.59;1630164;87;27146;-71
2020/12/23 03:07:16;;;;;;;5.37;2.80;;;;;;;7.71;95.81;99815.50;1620218;87;22028;-71
2020/12/23 03:09:41;;;;;;;3.62;2.30;;;;;;;7.83;95.94;99828.80;1626660;87;27035;-71
2020/12/23 03:12:07;;;;;;;4.05;2.40;;;;;;;7.79;96.29;99838.43;1630854;87;25525;-71
2020/12/23 03:14:33;;;;;;;3.47;2.20;;;;;;;7.61;97.19;99838.36;1630196;87;28470;-71
2020/12/23 03:16:59;;;;;;;4.12;2.50;;;;;;;7.57;97.44;99842.23;1631503;87;27213;-71
2020/12/23 03:19:24;;;;;;;3.42;2.37;;;;;;;7.54;97.68;99841.56;1629731;87;21116;-71
2020/12/23 03:21:50;;;;;;;3.67;2.55;;;;;;;7.46;97.73;99840.15;1630289;87;27226;-70
2020/12/23 03:24:16;;;;;;;4.53;2.77;;;;;;;7.43;97.96;99843.06;1630151;87;25823;-71
2020/12/23 03:26:41;;;;;;;5.45;2.90;;;;;;;7.37;97.83;99844.95;1630475;87;28889;-71
2020/12/23 03:29:07;;;;;;;6.58;3.20;;;;;;;7.37;97.67;99848.89;1631810;87;26789;-72
2020/12/23 03:31:33;;;;;;;5.87;2.80;;;;;;;7.37;97.55;99846.27;1630575;87;21210;-71
2020/12/23 03:33:59;;;;;;;4.22;2.85;;;;;;;7.34;97.46;99842.61;1629960;87;27091;-71
2020/12/23 03:36:24;;;;;;;6.70;2.90;;;;;;;7.35;97.36;99845.59;1630088;87;25385;-72
2020/12/23 03:38:50;;;;;;;5.55;2.95;;;;;;;7.28;97.49;99853.19;1629725;87;28957;-72
2020/12/23 03:41:16;;;;;;;7.37;2.75;;;;;;;7.33;96.86;99849.67;1630599;87;27559;-71
2020/12/23 03:43:42;;;;;;;5.78;2.70;;;;;;;7.32;96.26;99861.63;1630566;87;22379;-71
2020/12/23 03:46:07;;;;;;;5.00;2.52;;;;;;;7.26;95.85;99855.14;1628610;87;27023;-71
2020/12/23 03:48:34;;;;;;;5.47;2.67;;;;;;;7.31;95.64;99856.02;1626225;87;25525;-71
2020/12/23 03:50:59;;;;;;;6.28;2.67;;;;;;;7.26;95.20;99863.52;1622379;87;21216;-71
2020/12/23 03:53:25;;;;;;;4.45;2.50;;;;;;;7.27;95.09;99852.02;1631746;87;27071;-71
2020/12/23 03:55:51;;;;;;;4.90;2.52;;;;;;;7.19;95.03;99870.64;1630477;87;21402;-71
2020/12/23 03:58:17;;;;;;;4.30;2.60;;;;;;;7.19;95.07;99866.70;1625877;87;26994;-70
2020/12/23 04:00:43;;;;;;;4.45;2.67;;;;;;;7.19;94.96;99871.11;1626952;87;25306;-71
2020/12/23 04:03:09;;;;;;;4.50;2.35;;;;;;;7.14;95.12;99868.91;1630125;87;21657;-72
2020/12/23 04:05:35;;;;;;;3.50;2.30;;;;;;;7.11;94.66;99875.75;1630055;87;26872;-71
2020/12/23 04:08:01;;;;;;;5.08;2.37;;;;;;;7.08;94.19;99884.40;1628660;87;21188;-70
2020/12/23 04:10:27;;;;;;;4.35;2.35;;;;;;;6.99;94.07;99880.34;1631571;87;27027;-71
2020/12/23 04:12:52;;;;;;;4.72;2.10;;;;;;;6.95;94.15;99876.82;1628942;86;25360;-70
2020/12/23 04:15:18;;;;;;;4.60;2.10;;;;;;;6.92;93.90;99878.41;1630694;87;28537;-70
2020/12/23 04:17:44;;;;;;;4.22;2.50;;;;;;;6.93;93.71;99878.73;1631237;87;27748;-72
2020/12/23 04:20:10;;;;;;;4.45;2.20;;;;;;;6.87;94.00;99881.45;1631558;87;22510;-71
2020/12/23 04:22:35;;;;;;;4.72;2.20;;;;;;;6.95;93.98;99879.45;1629942;87;27481;-70
2020/12/23 04:25:04;;;;;;;4.53;2.10;;;;;;;6.87;93.49;99897.66;1629680;87;25380;-69
2020/12/23 04:27:30;;;;;;;6.40;2.30;;;;;;;6.91;93.33;99893.80;1630240;87;22144;-69
2020/12/23 04:29:56;;;;;;;3.85;2.00;;;;;;;6.85;92.93;99893.05;1626487;87;27404;-70
2020/12/23 04:32:22;;;;;;;6.22;2.27;;;;;;;6.81;92.75;99889.39;1618334;88;22146;-71
2020/12/23 04:34:47;;;;;;;5.47;2.37;;;;;;;6.71;92.85;99893.82;1621082;88;21204;-71
2020/12/23 04:37:13;;;;;;;3.85;2.00;;;;;;;6.63;93.09;99896.28;1619912;88;25303;-70
2020/12/23 04:39:39;;;;;;;6.95;2.35;;;;;;;6.58;93.32;99901.12;1618785;88;28447;-71
2020/12/23 04:42:05;;;;;;;6.17;2.50;;;;;;;6.55;93.37;99896.14;1619173;88;26870;-71
2020/12/23 04:44:32;;;;;;;7.28;2.83;;;;;;;6.52;93.23;99899.04;1617978;88;21927;-71
2020/12/23 04:46:57;;;;;;;5.33;2.20;;;;;;;6.42;93.59;99914.28;1617312;88;21176;-70
2020/12/23 04:49:23;;;;;;;5.45;2.42;;;;;;;6.36;93.72;99926.62;1622180;88;25306;-71
2020/12/23 04:51:54;;;;;;;5.45;2.50;;;;;;;6.25;94.04;99922.80;1618572;88;28260;-71
2020/12/23 04:54:21;;;;;;;5.62;2.40;;;;;;;6.24;94.33;99929.81;1617475;88;21247;-70
2020/12/23 04:56:47;;;;;;;4.53;2.55;;;;;;;6.25;94.34;99931.98;1618058;87;21174;-72
2020/12/23 04:59:12;;;;;;;8.48;2.80;;;;;;;6.20;94.48;99942.02;1623224;88;27016;-70
2020/12/23 05:01:38;;;;;;;5.30;2.80;;;;;;;6.25;94.41;99947.72;1621042;88;25505;-71
2020/12/23 05:04:04;;;;;;;5.87;2.72;;;;;;;6.18;94.65;99943.95;1620724;88;28420;-71
2020/12/23 05:06:29;;;;;;;4.53;2.80;;;;;;;6.20;94.64;99944.64;1617896;88;27395;-71
2020/12/23 05:08:55;;;;;;;6.80;2.92;;;;;;;6.16;94.63;99946.70;1594131;88;21891;-71
2020/12/23 05:11:21;;;;;;;6.58;3.05;;;;;;;6.14;94.66;99958.28;1620469;88;27567;-71
2020/12/23 05:13:47;;;;;;;8.35;3.40;;;;;;;6.09;95.14;99948.19;1621045;88;25218;-70
2020/12/23 05:16:22;;;;;;;7.03;3.35;;;;;;;6.06;95.13;99938.81;1618577;88;28397;-70
2020/12/23 05:18:48;;;;;;;6.28;3.52;;;;;;;6.09;95.01;99940.33;1620935;87;21203;-70
2020/12/23 05:21:17;;;;;;;7.37;3.83;;;;;;;6.04;95.21;99953.00;1623785;88;21894;-70
2020/12/23 05:23:45;;;;;;;8.90;4.10;;;;;;;6.04;95.28;99953.83;1622304;88;21282;-70
2020/12/23 05:26:12;;;;;;;8.13;4.40;;;;;;;6.02;95.09;99961.49;1620523;88;21311;-71
2020/12/23 05:28:39;;;;;;;7.63;4.50;;;;;;;5.98;95.19;99957.46;1620102;88;21249;-71
2020/12/23 05:31:11;;;;;;;11.35;4.47;;;;;;;5.98;95.18;99959.62;1616554;85;21241;-71
2020/12/23 05:33:38;;;;;;;8.40;4.55;;;;;;;5.99;95.32;99945.53;1627913;87;21619;-71
2020/12/23 05:36:06;;;;;;;8.50;4.40;;;;;;;5.91;95.63;99961.06;1627185;87;21285;-71
2020/12/23 05:38:32;;;;;;;;;;;;;;;5.94;95.38;99959.49;1626202;87;21186;-71
2020/12/23 05:40:59;;;;;;;9.05;4.62;;;;;;;5.98;95.43;99966.63;1627397;87;20310;-70
2020/12/23 05:43:27;;;;;;;9.83;4.90;;;;;;;6.15;94.69;99975.19;1627395;87;21214;-71
2020/12/23 05:45:58;;;;;;;8.93;4.10;;;;;;;6.15;94.69;99975.19;1626724;87;21947;-70
2020/12/23 05:48:23;;;;;;;13.35;4.55;;;;;;;6.07;94.43;99969.29;1626998;87;21286;-71
2020/12/23 05:50:49;;;;;;;7.78;4.10;;;;;;;6.20;94.01;99976.11;1625098;87;25356;-71
2020/12/23 05:53:16;;;;;;;9.10;4.03;;;;;;;6.06;93.27;99988.63;1627141;87;29485;-71
2020/12/23 05:55:46;;;;;;;11.75;3.80;;;;;;;6.13;93.34;99990.72;1627923;87;21277;-71
2020/12/23 05:58:31;;;;;;;10.38;3.67;;;;;;;6.11;92.56;99986.43;1623738;87;21253;-72
2020/12/23 06:01:00;;;;;;;9.10;3.12;;;;;;;6.08;91.84;99988.49;1622890;87;21213;-71
2020/12/23 06:03:58;;;;;;;8.75;3.47;;;;;;;6.00;91.62;100012.73;1620860;86;21262;-71
2020/12/23 06:06:27;;;;;;;10.60;3.40;;;;;;;6.06;91.40;100006.97;1624229;87;21221;-70
2020/12/23 06:08:56;;;;;;;8.60;3.25;;;;;;;5.91;91.24;100012.98;1626207;87;21271;-71
2020/12/23 06:11:49;;;;;;;9.90;3.40;;;;;;;5.92;91.14;100007.29;1625878;87;21362;-71
2020/12/23 06:14:20;;;;;;;10.85;3.67;;;;;;;5.91;91.50;100011.68;1627530;87;21244;-71
2020/12/23 06:17:04;;;;;;;10.70;4.05;;;;;;;5.89;92.10;100018.03;1624087;87;21450;-70
2020/12/23 06:19:46;;;;;;;11.93;4.10;;;;;;;5.87;92.43;100017.30;1627269;87;21293;-71
2020/12/23 06:22:00;;;;;;;11.38;3.67;;;;;;;5.85;92.62;100020.05;1621602;87;21281;-71
2020/12/23 06:24:26;;;;;;;9.68;3.85;;;;;;;5.77;92.36;100019.87;1627663;87;21899;-71
2020/12/23 06:26:55;;;;;;;11.90;4.10;;;;;;;5.77;92.31;100022.98;1625860;87;27002;-70
2020/12/23 06:29:23;;;;;;;12.95;4.05;;;;;;;5.73;92.23;100035.03;1627008;87;21198;-71
2020/12/23 06:32:05;;;;;;;11.63;3.65;;;;;;;5.69;92.10;100041.48;1622891;87;21237;-71
2020/12/23 06:34:39;;;;;;;10.30;3.65;;;;;;;5.63;91.54;100038.05;1622974;88;21190;-71
2020/12/23 06:37:23;;;;;;;10.00;3.42;;;;;;;5.60;91.44;100040.11;1624704;88;21257;-70
2020/12/23 06:39:48;;;;;;;14.03;4.03;;;;;;;5.53;90.59;100033.21;1624009;88;21487;-71
2020/12/23 06:42:20;;;;;;;14.17;4.23;;;;;;;5.53;90.74;100030.59;1622399;88;23761;-70
2020/12/23 06:44:53;;;;;;;13.40;4.10;;;;;;;5.49;90.08;100040.50;1620744;87;21282;-69
2020/12/23 06:47:20;;;;;;;12.13;3.70;;;;;;;5.51;90.02;100037.75;1623167;88;21294;-71
2020/12/23 06:49:52;;;;;;;13.45;4.35;;;;;;;5.50;89.71;100036.08;1615940;88;21356;-70
2020/12/23 06:52:27;;;;;;;13.83;4.03;;;;;;;5.49;89.65;100038.38;1617748;88;21230;-70
2020/12/23 06:55:02;;;;;;;12.28;3.80;;;;;;;5.58;89.69;100029.76;1622330;88;21278;-70
2020/12/23 06:57:44;;;;;;;10.55;4.00;;;;;;;5.58;89.32;100028.45;1620750;88;21691;-71
2020/12/23 07:00:31;;;;;;;11.15;4.12;;;;;;;5.59;89.36;100027.47;1621046;88;21230;-70
2020/12/23 07:02:58;;;;;;;9.80;3.87;;;;;;;5.62;89.33;100024.59;1621951;88;21182;-70
2020/12/23 07:05:31;;;;;;;14.63;4.33;;;;;;;5.56;89.12;100031.19;1618909;88;21238;-71
2020/12/23 07:08:03;;;;;;;16.70;4.42;;;;;;;5.68;88.95;100031.95;1622479;88;21178;-70
2020/12/23 07:10:37;;;;;;;18.07;4.72;;;;;;;5.69;88.66;100042.78;1621275;87;21938;-71
2020/12/23 07:13:10;;;;;;;13.10;4.33;;;;;;;5.63;88.74;100052.95;1620279;88;21206;-71
2020/12/23 07:15:39;;;;;;;11.03;4.33;;;;;;;5.67;88.57;100052.57;1622505;88;21690;-71
2020/12/23 07:18:13;;;;;;;12.40;4.10;;;;;;;5.58;88.23;100057.26;1600858;88;21471;-72
2020/12/23 07:20:48;;;;;;;16.10;4.03;;;;;;;5.62;88.31;100054.72;1592632;88;21290;-71
2020/12/23 07:23:15;;;;;;;14.07;4.35;;;;;;;5.59;88.25;100060.21;1624722;88;21244;-71
2020/12/23 07:25:52;;;;;;;14.73;4.92;;;;;;;5.61;88.29;100062.70;1619352;88;21739;-70
2020/12/23 07:28:38;;;;;;;14.15;5.20;;;;;;;5.62;88.25;100063.89;1624301;88;21241;-70
2020/12/23 07:31:05;;;;;;;17.85;4.90;;;;;;;5.58;87.92;100076.42;1625554;86;21683;-70
2020/12/23 07:33:33;;;;;;;13.40;5.37;;;;;;;5.50;88.28;100088.01;1626903;87;21182;-71
2020/12/23 07:36:01;;;;;;;14.33;5.60;;;;;;;5.52;88.21;100083.95;1626977;87;21739;-71
2020/12/23 07:38:32;;;;;;;13.60;5.62;;;;;;;5.52;88.15;100079.54;1626524;87;21187;-71
2020/12/23 07:40:58;;;;;;;16.55;5.47;;;;;;;5.50;88.32;100081.46;1625954;87;21235;-71
2020/12/23 07:43:25;;;;;;;15.43;5.33;;;;;;;5.48;87.88;100083.84;1627083;87;27593;-71
2020/12/23 07:45:51;;;;;;;14.73;5.53;;;;;;;5.44;87.92;100087.66;1625040;87;21237;-71
2020/12/23 07:48:19;;;;;;;14.43;5.50;;;;;;;5.38;88.06;100093.75;1622808;87;28446;-71
2020/12/23 07:50:50;;;;;;;15.65;5.42;;;;;;;5.37;88.33;100094.70;1627205;87;21321;-72
2020/12/23 07:53:21;;;;;;;23.47;5.40;;;;;;;5.36;88.23;100094.36;1620800;87;21671;-71
2020/12/23 07:56:09;;;;;;;18.77;5.90;;;;;;;5.32;88.59;100098.66;1621399;87;21301;-71
2020/12/23 07:58:32;;;;;;;16.07;5.92;;;;;;;5.28;88.67;100105.91;1630539;87;21731;-71
2020/12/23 08:00:58;;;;;;;17.62;5.55;;;;;;;5.37;88.50;100094.70;1625223;87;21214;-70
2020/12/23 08:03:26;;;;;;;15.58;5.67;;;;;;;5.36;88.46;100087.81;1626265;87;27534;-70
2020/12/23 08:06:09;;;;;;;14.23;4.97;;;;;;;5.33;88.49;100085.45;1618653;87;21273;-71
2020/12/23 08:08:35;;;;;;;14.05;5.67;;;;;;;5.36;88.61;100090.44;1622836;87;21194;-71
2020/12/23 08:11:13;;;;;;;15.05;5.60;;;;;;;5.37;89.09;100089.46;1624637;87;21270;-72
2020/12/23 08:13:39;;;;;;;13.80;5.60;;;;;;;5.31;89.87;100087.34;1623153;87;21758;-70
2020/12/23 08:16:08;;;;;;;12.35;5.50;;;;;;;5.26;90.53;100089.98;1607600;87;21675;-70
2020/12/23 08:18:35;;;;;;;17.02;5.90;;;;;;;5.23;91.31;100094.98;1626974;87;21238;-70
2020/12/23 08:21:17;;;;;;;16.82;6.70;;;;;;;5.28;91.43;100100.67;1620979;87;22473;-72
2020/12/23 08:23:44;;;;;;;17.95;6.47;;;;;;;5.23;92.14;100102.84;1628467;87;21300;-70
2020/12/23 08:26:11;;;;;;;16.67;7.10;;;;;;;5.21;92.60;100107.38;1621334;87;21898;-71
2020/12/23 08:28:38;;;;;;;15.53;6.72;;;;;;;5.27;92.85;100109.50;1624781;87;21229;-71
2020/12/23 08:31:05;;;;;;;14.73;7.05;;;;;;;5.26;93.23;100109.14;1622833;87;21667;-71
2020/12/23 08:33:32;;;;;;;16.15;7.35;;;;;;;5.30;93.32;100110.56;1626029;87;21230;-72
2020/12/23 08:36:00;;;;;;;15.03;6.80;;;;;;;5.48;93.02;100105.61;1572812;87;21267;-71
2020/12/23 08:38:26;;;;;;;16.07;7.33;;;;;;;5.47;93.06;100108.36;1623931;87;21233;-71
2020/12/23 08:40:54;;;;;;;16.77;7.35;;;;;;;5.40;93.28;100106.23;1624011;86;26881;-70
2020/12/23 08:43:23;;;;;;;18.40;7.03;;;;;;;5.40;93.62;100110.16;1609248;88;21425;-72
2020/12/23 08:45:50;;;;;;;18.42;7.58;;;;;;;5.40;93.73;100106.23;1617116;87;21273;-72
2020/12/23 08:48:23;;;;;;;17.95;7.20;;;;;;;5.38;94.16;100109.47;1641977;86;21264;-72
2020/12/23 08:51:02;;;;;;;16.30;7.45;;;;;;;5.39;94.14;100115.06;1602282;88;21250;-72
2020/12/23 08:53:38;;;;;;;16.65;7.20;;;;;;;5.44;94.20;100113.84;1623112;86;21483;-71
2020/12/23 08:56:29;;;;;;;17.40;7.12;;;;;;;5.43;94.27;100118.75;1629662;86;21250;-72
2020/12/23 08:59:05;;;;;;;16.42;6.95;;;;;;;5.47;94.00;100125.37;1636928;86;21271;-71
2020/12/23 09:01:33;;;;;;;15.18;6.70;;;;;;;5.52;93.97;100125.37;1627468;86;21229;-72
2020/12/23 09:04:04;;;;;;;15.58;7.28;;;;;;;5.60;93.56;100118.20;1631953;86;21192;-72
2020/12/23 09:06:31;;;;;;;16.55;7.00;;;;;;;5.59;93.41;100119.15;1639299;86;21211;-72
2020/12/23 09:09:21;;;;;;;21.30;7.00;;;;;;;5.66;93.38;100123.44;1635151;86;21262;-72
2020/12/23 09:11:51;;;;;;;17.17;6.62;;;;;;;5.57;92.90;100125.83;1631402;86;21227;-69
2020/12/23 09:14:34;;;;;;;16.05;6.78;;;;;;;5.63;92.64;100114.02;1622978;86;21709;-70
2020/12/23 09:17:23;;;;;;;17.40;6.25;;;;;;;5.57;92.74;100123.69;1598261;86;21239;-69
2020/12/23 09:19:52;;;;;;;15.88;6.40;;;;;;;5.54;92.17;100120.83;1635021;86;21203;-68
2020/12/23 09:22:27;;;;;;;17.40;6.33;;;;;;;5.61;92.10;100112.02;1633698;86;22011;-69
2020/12/23 09:24:53;;;;;;;20.95;6.12;;;;;;;5.67;91.79;100110.21;1635632;86;21249;-71
2020/12/23 09:27:24;;;;;;;19.65;6.50;;;;;;;5.75;91.47;100106.47;1625871;86;21583;-71
2020/12/23 09:29:51;;;;;;;14.95;6.05;;;;;;;5.83;91.44;100105.84;1621238;86;21676;-69
2020/12/23 09:32:16;;;;;;;16.40;6.00;;;;;;;5.91;90.90;100107.83;1635491;86;21564;-70
2020/12/23 09:34:42;;;;;;;20.15;5.80;;;;;;;5.89;90.66;100109.76;1632240;86;22092;-70
2020/12/23 09:37:08;;;;;;;19.07;6.25;;;;;;;5.87;89.73;100120.83;1638791;86;27250;-70
2020/12/23 09:39:35;;;;;;;20.82;6.37;;;;;;;5.91;89.50;100109.14;1628374;86;25513;-72
2020/12/23 09:42:02;;;;;;;17.05;6.28;;;;;;;5.96;88.88;100115.31;1632521;86;21264;-71
2020/12/23 09:44:28;;;;;;;20.08;6.70;;;;;;;6.02;88.58;100118.28;1632282;86;21256;-70
2020/12/23 09:46:54;;;;;;;14.87;6.10;;;;;;;6.08;88.41;100115.14;1628320;86;21957;-70
2020/12/23 09:49:20;;;;;;;18.15;6.25;;;;;;;6.08;87.75;100109.91;1640950;86;27192;-70
2020/12/23 09:51:50;;;;;;;15.58;5.97;;;;;;;6.22;86.99;100103.50;1630622;86;25472;-70
2020/12/23 09:54:16;;;;;;;17.17;6.62;;;;;;;6.34;86.13;100095.55;1627893;86;21284;-68
2020/12/23 09:56:53;;;;;;;24.57;6.53;;;;;;;6.35;85.19;100104.60;1627690;86;26811;-68
2020/12/23 09:59:21;;;;;;;17.45;5.95;;;;;;;6.31;85.22;100103.22;1627282;86;21642;-68
2020/12/23 10:01:47;;;;;;;19.90;6.30;;;;;;;6.30;84.83;100109.41;1642894;86;22408;-68
2020/12/23 10:04:13;;;;;;;24.98;6.70;;;;;;;6.30;84.94;100105.48;1634333;86;21262;-68
2020/12/23 10:06:38;;;;;;;19.65;6.90;;;;;;;6.30;85.10;100115.97;1627582;86;28457;-69
2020/12/23 10:09:05;;;;;;;20.80;7.17;;;;;;;6.34;85.16;100112.14;1632434;86;27056;-70
2020/12/23 10:11:31;;;;;;;22.48;6.83;;;;;;;6.20;84.63;100122.94;1629613;86;21282;-70
2020/12/23 10:13:57;;;;;;;20.75;7.40;;;;;;;6.22;84.78;100114.48;1635991;86;21690;-70
2020/12/23 10:16:34;;;;;;;17.07;6.35;;;;;;;6.22;84.77;100114.48;1626164;86;21344;-70
2020/12/23 10:19:00;;;;;;;19.60;7.45;;;;;;;6.31;84.73;100107.16;1641652;86;21719;-70
2020/12/23 10:21:27;;;;;;;15.85;7.12;;;;;;;6.39;84.65;100109.95;1625633;86;21231;-71
2020/12/23 10:23:53;;;;;;;23.55;7.55;;;;;;;6.41;84.52;100109.82;1632778;86;21252;-70
2020/12/23 10:26:19;;;;;;;16.27;7.03;;;;;;;6.33;84.09;100105.22;1628760;86;21264;-72
2020/12/23 10:28:45;;;;;;;20.90;6.53;;;;;;;6.28;83.74;100103.48;1638827;86;25336;-71
2020/12/23 10:31:11;;;;;;;19.87;7.75;;;;;;;6.22;82.66;100114.48;1633197;86;21249;-69
2020/12/23 10:33:37;;;;;;;21.87;7.15;;;;;;;6.17;83.50;100116.64;1623854;86;26810;-68
2020/12/23 10:36:08;;;;;;;17.95;6.37;;;;;;;6.23;83.55;100120.06;1636384;86;21455;-71
2020/12/23 10:38:35;;;;;;;17.23;6.05;;;;;;;6.18;82.59;100123.55;1637699;86;21202;-70
2020/12/23 10:41:01;;;;;;;18.27;5.83;;;;;;;6.17;82.85;100127.12;1631337;86;21228;-70
2020/12/23 10:43:27;;;;;;;17.27;5.83;;;;;;;6.07;82.96;100118.72;1636484;86;28397;-68
2020/12/23 10:45:52;;;;;;;19.32;6.72;;;;;;;6.01;82.77;100120.56;1639526;86;27395;-74
2020/12/23 10:48:18;;;;;;;18.07;6.67;;;;;;;5.96;82.89;100108.27;1639041;86;21902;-69
2020/12/23 10:50:45;;;;;;;18.15;6.42;;;;;;;6.04;82.96;100108.48;1636391;86;27624;-69
2020/12/23 10:53:10;;;;;;;16.62;6.42;;;;;;;6.10;83.02;100111.91;1642700;86;21249;-70
2020/12/23 10:55:36;;;;;;;17.25;6.80;;;;;;;6.10;82.57;100109.28;1634064;86;28533;-69
2020/12/23 10:58:02;;;;;;;17.57;6.22;;;;;;;6.06;81.95;100122.31;1639427;86;26814;-70
2020/12/23 11:00:28;;;;;;;20.17;6.95;;;;;;;6.04;81.99;100118.97;1622645;86;21358;-72
2020/12/23 11:02:54;;;;;;;17.07;6.90;;;;;;;6.04;82.18;100113.73;1625712;87;27013;-71
2020/12/23 11:05:20;;;;;;;16.80;7.50;;;;;;;6.08;82.06;100115.14;1640758;86;25262;-70
2020/12/23 11:07:46;;;;;;;17.85;8.33;;;;;;;6.03;81.54;100109.47;1629742;87;28401;-70
2020/12/23 11:10:14;;;;;;;18.90;7.87;;;;;;;6.13;81.69;100107.39;1639501;86;21208;-71
2020/12/23 11:12:40;;;;;;;24.77;8.38;;;;;;;6.10;81.11;100110.59;1633447;87;21982;-68
2020/12/23 11:15:05;;;;;;;18.27;8.70;;;;;;;6.24;81.21;100101.58;1628701;87;27103;-70
2020/12/23 11:17:31;;;;;;;21.55;9.50;;;;;;;6.22;80.39;100101.37;1626427;87;25327;-71
2020/12/23 11:19:57;;;;;;;25.37;9.05;;;;;;;6.28;80.61;100105.61;1620092;87;28559;-70
2020/12/23 11:22:22;;;;;;;19.25;9.10;;;;;;;6.21;81.22;100098.39;1629472;86;26881;-69
2020/12/23 11:24:48;;;;;;;20.70;9.43;;;;;;;6.26;81.39;100097.05;1625756;87;21928;-68
2020/12/23 11:27:17;;;;;;;20.57;8.40;;;;;;;6.26;81.27;100097.52;1625709;87;27053;-70
2020/12/23 11:29:43;;;;;;;18.07;8.88;;;;;;;6.24;80.53;100096.33;1618768;87;21262;-71
2020/12/23 11:32:09;;;;;;;21.23;9.48;;;;;;;6.15;80.79;100093.66;1623800;86;28440;-70
2020/12/23 11:34:35;;;;;;;22.35;8.78;;;;;;;6.14;80.93;100091.53;1620308;87;27012;-70
2020/12/23 11:37:01;;;;;;;20.77;8.38;;;;;;;6.22;80.57;100093.02;1608863;87;21667;-71
2020/12/23 11:39:28;;;;;;;18.82;8.20;;;;;;;6.13;80.32;100095.59;1629953;87;27675;-70
2020/12/23 11:41:55;;;;;;;18.42;8.48;;;;;;;6.12;80.57;100097.36;1623598;87;21230;-70
2020/12/23 11:44:21;;;;;;;22.93;9.40;;;;;;;6.17;80.46;100094.35;1620620;87;21178;-69
2020/12/23 11:46:47;;;;;;;22.32;9.35;;;;;;;6.16;80.46;100101.89;1621090;87;26770;-69
2020/12/23 11:49:14;;;;;;;22.02;9.08;;;;;;;5.97;80.98;100080.33;1609789;87;21426;-70